RESULTATS »

INSCRITS PRESENTATS ACABEN RETIRATS DESQUALIFICATS DIST. TRAM 1 DIST. TRAM 2 DIST. TRAM 3 TEMP. EXT TEMP. AIGUA
551 508 504 4 0 5 20 2 16 0

CLASSIFICACIÓ

MASCULÍ FEMENÍ CATEGORIES CLUBS (MASCULINA) CLUBS (FEMENINA) INDIVIDUALS GRUPS D'EDAT

LLOCDORSALNOMCLUBCAT.T.META| P.Tram 1 || P.Tram 2 |Km/hTEMPS| P.Tram 3 |PARC_1PARC_2
1 19MONTSERRAT MAS SANZCERRR IGUALADAABF01:01:5911400:19:0014800:33:5535.3800:52:554700:09:0400:01:0100:01:00
2 4077MARTA MARTIN ALEGRECLUB TRIATLO GRANOLLERSABF01:04:4817600:20:0417200:34:3134.7700:54:3514900:10:1300:00:5800:00:53
3 3579ANNA SUBIRANA FRIGOLACLUB TRIATLO GRANOLLERSABF01:04:5317800:20:0418200:34:3834.6500:54:4214700:10:1100:00:5500:01:00
4 4013BEATRIZ AGUILAR PIQUERICHARD CALLE TRIATLO CLUABF01:05:3622900:20:4516900:34:2734.8300:55:1217100:10:2400:01:1500:01:08
5 56ANNA PLANAS GARCIAC.A. IGUALADAABF01:06:1024900:21:0315700:34:0735.1700:55:1026300:11:0000:01:0700:01:06
6 6080JUDIT UGAS MERINOC.N. SABADELLCDF01:07:0118900:20:0928200:36:3232.8500:56:4116600:10:2000:01:1400:01:13
7 3521MONICA CRISOL SALASCLUB NATACIO RUBIABF01:07:1121600:20:3326600:36:0433.2700:56:3719300:10:3400:00:5800:01:08
8 4003TANIA GUERRA ROMEROPRAT TRIATLO 1994ABF01:07:1222200:20:3727400:36:1833.0600:56:5515700:10:1700:01:0500:01:04
9 41MONTSE ARANDA CASTANCLUB TRIATLO GRANOLLERSV1F01:07:2929800:21:3820600:35:0734.1700:56:4522700:10:4400:01:1700:01:17
10 2927IVANA PERALTA LUCCHINIC.N. MATAROABF01:07:3729500:21:3720300:34:5934.3000:56:3626400:11:0100:01:1900:01:06
11 3558TERESA PONS MUNILLPRAT TRIATLO 1994V1F01:07:3731700:21:5318800:34:4534.5300:56:3826000:10:5900:01:0100:01:08
12 8047DELIA MONTERRUBIO SERRANOLLICENCIA DE DIAABF01:07:5623800:20:5427300:36:1533.1000:57:0923400:10:4700:01:2000:01:16
13 5094MARI CARMEN BALLESTEROS PCLUB TRIATLO VALLIRANAV1F01:08:2030100:21:4226100:35:5933.3500:57:4120500:10:3900:01:2400:01:19
14 101ANDREA LOPEZ RAMENTOLTRIACTIV LANZAROTECDF01:08:4725000:21:0324600:35:4033.6400:56:4338500:12:0400:00:5600:00:57
15 1839JÚLIA RAJA GUBAUC.N. MATAROCDF01:09:0026000:21:1730300:37:1132.2700:58:2818900:10:3200:01:0700:00:59
16 1832CARLA PLAYA CAVALLEC.N. SABADELLABF01:09:0323000:20:4632000:37:3731.9000:58:2321300:10:4000:01:1300:00:58
17 6129LORENA ESTEBAN PATOFASTTRIATLON - C.N. MONTJABF01:09:0924700:20:5931200:37:3131.9900:58:3020600:10:3900:01:2000:01:07
18 64GEMMA DIAZ RUIZPRAT TRIATLO 1994CDF01:09:1329100:21:3429200:36:5632.4900:58:3022100:10:4300:01:0200:00:57
19 2150EULÀLIA CALVERAS AUGÉTGCBINNV2F01:09:2327000:21:1930600:37:2032.1400:58:3922400:10:4400:01:2200:01:10
20 6077ANNA SANTIDRIAN BOUCLUB TRI5UABF01:09:2730000:21:4129700:37:0032.4300:58:4123300:10:4600:01:2800:01:14
21 6194ELVA ROJAS LEDEZMACLUB TRIATLO SABADELLABF01:09:4219500:20:1435500:38:4330.9900:58:5723100:10:4500:01:1900:01:12
22 6213MONTSE GÓMEZ RAMIREZCLUB TRI5UABF01:09:4422600:20:4135900:38:5430.8500:59:3513600:10:0900:01:3300:01:15
23 2932SONIA TOMEGROS REGALADOCLUB TRIATLO SABADELLABF01:09:4734900:22:2126300:35:5933.3500:58:2032300:11:2700:01:2400:01:11
24 6049ADRIANA LÓPEZ ULLODCLUB TRIATLO GRANOLLERSABF01:09:4924300:20:5731500:37:3431.9400:58:3129200:11:1800:00:5900:01:09
25 1937MONTSERRAT CINCA PATOC.N. REUS PLOMSV2F01:09:5536500:22:4227200:36:1233.1500:58:5426500:11:0100:00:5900:01:02
26 6263EVA MARTÍN-MORENO JIMÉNEZTGCBINNSUB23F01:09:5617700:20:0438800:39:4630.1800:59:5013300:10:0600:01:0700:01:04
27 6072PATRICIA ORTEGA RUIZCLUB TRIATLO VALLIRANAABF01:10:0538600:23:0323800:35:3633.7100:58:3931900:11:2600:01:2800:01:16
28 3591LARA GUTIERREZ MORENOCLUB TRIATLO VALLIRANAABF01:10:0538400:23:0222200:35:2733.8500:58:2934000:11:3600:01:1700:01:07
29 5160EVA PUPIM GETEJOVENTUT ATLETICA MONTCADV1F01:10:1822800:20:4535700:38:5130.8900:59:3622000:10:4200:01:2800:01:15
30 5170RACHAEL WESTCLUB NATACIO VALLDOREIXV1F01:10:1830400:21:4832200:37:3731.9000:59:2524800:10:5300:01:0900:01:06
31 1959VERÓNICA ÁVILA LAGOCLUB NATACIO SITGESABF01:10:2037300:22:5423400:35:3433.7400:58:2836900:11:5200:01:1600:01:04
32 2778BEGOÑA DE LA ROCHA MURTGCBINNABF01:10:5131800:21:5431600:37:3531.9300:59:2930400:11:2200:01:1900:01:07
33 6266LUCÍA CORDOBA MIÑANAC.E. RAYOTEAMABF01:11:0036900:22:4528700:36:4432.6700:59:2933100:11:3100:01:2000:01:10
34 6256LAIA ROSELLO GARCIAC.E. PICORNELLABF01:11:5030500:21:4836200:38:5730.8101:00:4526800:11:0500:01:3100:01:33
35 6149MARTA BOTSORA TOLOCHKOC.A. IGUALADASUB23F01:12:0521500:20:3337300:39:1730.5500:59:5039700:12:1500:00:5900:01:23
36 4070SUSANA CASTAN SALINASCLUB ESPORTIU PRORUNNERSV1F01:12:0630800:21:4936800:39:0530.7001:00:5428600:11:1200:01:3400:01:25
37 6238PAULA GUERRERO RUSIÑOLC.N. SABADELLJNF01:12:2826300:21:1737700:39:2330.4701:00:4035900:11:4800:01:0800:01:12
38 6166LAURA GONZALEZ ARANDAC.E. VILA OLIMPICAABF01:12:3139100:23:1332300:37:3831.8901:00:5134700:11:4000:01:5500:01:24
39 4093EVA PEREZ DEL RIOCLUB NATACIO SITGESV1F01:12:3726200:21:1739400:39:5930.0101:01:1630100:11:2100:01:2000:00:00
40 2931JOANA PASCUAL   NICOLAUPRAT TRIATLO 1994ABF01:12:5640400:23:2531700:37:3531.9301:01:0037300:11:5600:01:0200:01:06
41 5108MARIA ESPINOSA DEL ALBACLUB NATACIO BARCELONAJNF01:12:5937400:22:5434500:38:3131.1601:01:2533900:11:3400:01:1300:00:00
42 6043ALICIA CONDE LÓPEZC.E. VILA OLIMPICAABF01:13:1132000:21:5639500:39:5930.0101:01:5529000:11:1600:01:2400:01:17
43 6153SANDRA CUELLOTG TRIATLO SITGESABF01:13:1330600:21:4839900:40:0629.9301:01:5429600:11:1900:01:2300:01:11
44 4002LARA AZNAR BELTRANCLUB NATACIO BARCELONAJNF01:13:2737500:22:5435000:38:3531.1001:01:2937700:11:5800:01:2400:01:02
45 5096ANGELA AGUILAR FUENTESC.N. CATALUNYAV1F01:13:3633600:22:1036900:39:1330.6001:01:2339100:12:1300:01:0800:01:21
46 6065ZAIDA JURADO SANCHEZC. TRIATLO MONTORNESABF01:13:4433500:22:0839700:40:0329.9601:02:1133800:11:3300:01:1800:01:04
47 6042VALERIE TEULLIERESTG TRIATLO SITGESV1F01:13:4843800:24:1229500:36:5732.4801:01:0942400:12:3900:01:2300:01:20
48 2215CRISTINA BATLLES PROKUSHEFASTTRIATLON - C.N. MONTJCDF01:14:2833100:22:0641100:41:0529.2101:03:1129100:11:1700:01:3400:00:00
49 4041CAROLINA APARICIO CABANILC.N. SABADELLABF01:14:3540200:23:2438100:39:2930.3901:02:5335300:11:4200:01:4000:01:16
50 5137AITANA DOMÈNECH MARTÍNEZPRAT TRIATLO 1994ABF01:14:3830700:21:4942400:41:4328.7701:03:3227200:11:0600:01:0400:01:13
51 5104DESIREE VIDAL COMASASS ESPORTIVA ROCKETSABF01:14:4534700:22:1940600:40:4629.4401:03:0534900:11:4000:01:1000:01:07
52 1866ANTONIA CANO ALARCÓNC.E. RAYOTEAMV1F01:14:5630200:21:4442600:41:4628.7301:03:3032100:11:2600:01:3600:01:12
53 3554MATILDE MUÑOZ RICOCLUB ESPORTIU I RUN WITH V1F01:15:0736300:22:3440900:40:5429.3401:03:2834600:11:3900:01:4600:01:27
54 4037MIRIAM OLIVARES POUSC.E. PICORNELLABF01:15:1641500:23:4138000:39:2730.4201:03:0838700:12:0800:01:2900:01:35
55 6164CRISTINA AGUILERA PORRASCLUB NATACIO RUBIV1F01:15:2033800:22:1142500:41:4528.7401:03:5631300:11:2400:01:2500:01:24
56 89EMMANUELLE GRANDINCERDANYOLA CHABF01:15:4237200:22:5341500:41:1729.0701:04:1033500:11:3200:01:3400:01:21
57 126BLANCA TRENAS HINOJOSAW3TRIBCNV1F01:15:5340900:23:2940500:40:4229.4801:04:1135200:11:4200:01:2600:01:31
58 6219MIRIAM EGIDO BAYODCLUB TRIATLO ATLESV1F01:15:5642600:23:5639000:39:4930.1401:03:4538900:12:1100:01:2100:01:15
59 6191MERCHE COMINO CASADOCERDANYOLA CHV1F01:16:2340700:23:2840200:40:3929.5201:04:0739800:12:1600:01:3000:01:24
60 1987JOANA MARTINEZ CARRIONC.N. MATAROV1F01:17:1046400:25:2034900:38:3431.1101:03:5446400:13:1600:01:1300:00:00
61 6138SARA DELPUEYO CASANOVAC.E. RAYOTEAMABF01:17:3137800:22:5844100:42:3728.1601:05:3537400:11:5600:01:1300:01:15
62 8028CARLA DELGADO GONZALEZLLICENCIA DE DIAABF01:17:4441200:23:3841700:41:2528.9701:05:0343000:12:4100:01:2800:01:28
63 1419CELIA MEMBRILLERA SERRANOCLUB TRI5UJNF01:18:0136600:22:4245100:43:2527.6401:06:0737100:11:5400:01:5200:01:30
64 6155IRENE FENOY ROMEROTRIATLO TERRASSASPORTS-CIABF01:18:2542400:23:5244500:42:4528.0701:06:3736000:11:4800:01:5000:01:38
65 7028MIREIA SIMÓ PONSLLICENCIA DE DIASUB23F01:18:2643900:24:12000:00:000.0000:00:00000:00:0000:00:0000:00:00
66 6110CLARA PESO DOMINGUEZFASTTRIATLON - C.N. MONTJCDF01:18:3339600:23:2244300:42:4028.1301:06:0242000:12:3100:01:2200:01:18
67 2918MARTA CUARTERO GUERRERO INDEPENDENTABF01:18:5838900:23:0546000:44:1527.1201:07:2034300:11:3800:01:2400:01:07
68 5162MARIT FAUCOGNEYCLUB NATACIO VALLDOREIXSUB23F01:19:2345800:25:0742700:42:0228.5501:07:0939300:12:1400:01:2000:01:25
69 1968SUSANNA LLOPART BELLOCC.A. IGUALADAABF01:19:4044500:24:3543400:42:1528.4001:06:5043700:12:5000:01:1100:01:11
70 6209ANNA CAPELLERA MALAGONCLUB NATACIO BANYOLESJNF01:19:5046500:25:2142000:41:3428.8701:06:5544300:12:5500:01:1300:01:12
71 3555PAULA SCHMIDTPRAT TRIATLO 1994V1F01:19:5646300:25:1941900:41:3328.8801:06:5245300:13:0400:01:3100:01:29
72 6224CRISTINA ROIG ANTONERCLUB NATACIO BANYOLESABF01:20:1445400:24:5542900:42:0528.5101:07:0046000:13:1400:01:1400:01:20
73 3557ANNA PASCUAL PICHCLUB NATACIO BANYOLESV2F01:20:2046800:25:2443500:42:1528.4001:07:3942800:12:4100:01:3700:00:00
74 6054IVET RUBIO COMASCLUB TRIATLO GRANOLLERSCDF01:20:2444400:24:3144800:43:1427.7601:07:4542500:12:3900:01:2100:00:00
75 7012JESSICA REVERTE DE GEALLICENCIA DE DIAABF01:20:2740800:23:2945900:44:0727.2001:07:3643900:12:5100:01:3300:01:22
76 2930JUDITH DIAZ BATLLECLUB NATACIO SITGESV1F01:20:4443700:24:0845600:43:4127.4701:07:4944200:12:5500:01:4600:01:30
77 6162ROSA CASADO MIRALLESC.E.E. SANT GERVASIV1F01:20:4845200:24:4644700:43:0327.8701:07:4945100:12:5900:01:5800:02:12
78 8034ANTONIA VERA FERNANDEZLLICENCIA DE DIAV1F01:20:4845100:24:4644200:42:3928.1401:07:2547100:13:2300:01:5400:01:48
79 6092MERITXELL NOGUERA OTEROTG TRIATLO SITGESV1F01:20:5144100:24:1346100:44:2327.0401:08:3639600:12:1500:01:3300:01:36
80 5190JANETTE PARRA ROJASTRIATLO TERRASSASPORTS-CIABF01:21:3445900:25:0744900:43:1927.7001:08:2645500:13:0800:01:5200:01:44
81 2229MARTA MARTÍN-MORAFASTTRIATLON - C.N. MONTJJNF01:22:2439900:23:2248300:46:3625.7501:09:5841300:12:2600:01:2200:01:09
82 1837INÉS ARAGUNDE BELMONTEFASTTRIATLON - C.N. MONTJCDF01:22:2443500:24:0647700:45:5426.1401:10:0040800:12:2400:01:2200:01:12
83 6133ESTER DE LA FUENTE ALMEIDC.E. VILA OLIMPICAABF01:22:3144700:24:4447400:45:1826.4901:10:0241700:12:2900:01:2100:01:17
84 8017SHEILA CAÑABATE SANCHEZLLICENCIA DE DIAABF01:22:3547600:26:0843000:42:0828.4801:08:1648900:14:1900:01:2900:01:30
85 1971ANNA BARBA SOLERCLUB NATACIO BANYOLESV2F01:22:3645500:24:5946600:45:0026.6701:09:5942300:12:3700:01:2600:01:25
86 3529CHIARA TRONCARELLIC.E. PICORNELLABF01:22:3646700:25:2345300:43:3527.5301:08:5847400:13:3800:01:2500:01:05
87 2879MERITXELL SOLER RODRIGOCLUB TRIATLO ATLESABF01:23:0748400:26:1045400:43:3727.5101:09:4746800:13:2000:01:5000:01:22
88 1320PILAR ROYO OLLERCLUB TRIATLO ATLESV2F01:23:0747400:26:0847000:45:0826.5901:11:1636700:11:5100:01:4900:00:58
89 6249MARIA JOSE IBAÑEZ MONTESCLUB TRIATLO ATLESV1F01:23:0748200:26:1045500:43:3727.5101:09:4746700:13:2000:01:5800:01:46
90 1379VANESSA TEULE ABRILCLUB TRIATLO ATLESV1F01:23:3247900:26:0947800:45:5826.1101:12:0731400:11:2500:01:5500:01:48
91 6101BERTA GRATACÓS MARZOCLUB NATACIO BANYOLESCDF01:23:3448800:26:2745800:43:5327.3501:10:2045900:13:1400:01:0800:01:09
92 1321JÉSSICA ROJAS RODRÍGUEZCLUB TRIATLO ATLESABF01:24:0047700:26:0946500:45:0026.6701:11:0943800:12:5100:01:4600:01:10
93 6154MARIA SANCHEZ CORTESCLUB TRI5UABF01:24:2437700:22:5749300:49:3324.2201:12:3037000:11:5400:01:3700:01:46
94 6222MAMEN ROMÁN MARÍNCLUB TRIATLO L´EIX DE NAVABF01:24:3747500:26:0846900:45:0726.6001:11:1546900:13:2200:01:3700:01:32
95 5025ROCÍO TORRE RUIZFASTTRIATLON - C.N. MONTJV1F01:25:1047200:25:5848100:46:0326.0601:12:0145600:13:0900:01:2100:01:25
96 1333ELIZABETH CABELLO GILCLUB TRIATLO ATLESABF01:25:1348000:26:0947900:46:0026.0901:12:0945400:13:0400:02:0100:01:34
97 6261ARANTXA CLAVELL FONTCLUB TRIATLO ATLESABF01:25:1448500:26:1248200:46:0526.0401:12:1744800:12:5700:01:2700:01:43
98 2214POLINA KUZYAKINA ALEXANDFASTTRIATLON - C.N. MONTJCDF01:25:2347000:25:4148400:46:4325.6901:12:2445000:12:5900:01:1500:00:00
99 6040MARTA MARIN BLANCOTG TRIATLO SITGESABF01:25:3749600:27:3346200:44:2627.0101:11:5947500:13:3800:01:2700:01:14
100 8037MAITE FERNANDEZ ALVAREZLLICENCIA DE DIAABF01:26:2849300:27:0847300:45:1326.5401:12:2148600:14:0700:01:3900:01:53
101 7020LAURA CABALLERO ARQUILLOLLICENCIA DE DIAV1F01:26:2949400:27:1246800:45:0626.6101:12:1848700:14:1100:02:0300:01:51
102 6212MONTSE COSTA MATEUTG TRIATLO SITGESV1F01:26:3149100:27:0747100:45:1026.5701:12:1748800:14:1400:01:3300:01:31
103 5041ALBA SANCHEZ NAVASCLUB TRIATLO SABADELLABF01:26:5148100:26:1048500:46:5825.5501:13:0847800:13:4300:01:3000:01:36
104 8035MARISOL SOLER PERRUSQUIALLICENCIA DE DIAV1F01:26:5849700:27:4746300:44:2627.0101:12:1349300:14:4500:01:2700:01:52
105 6199MERCÈ SUBILS TORRASCERRR IGUALADAABF01:27:2247300:26:0648900:48:4024.6601:14:4642200:12:3600:01:5000:01:22
106 1821MIREIA CAVERO SIBERAFASTTRIATLON - C.N. MONTJCDF01:27:3247100:25:4149100:48:5324.5501:14:3444900:12:5800:01:1400:01:12
107 4020MARIA CASTRO MARTINEZCLUB TRIATLO GRANOLLERSJNF01:27:4646600:25:22000:00:000.0000:00:00000:00:0000:01:1300:00:00
108 1281ESTEFANIA DOMÍNGUEZ RÚIZCLUB NATACIO BARCELONAABF01:27:4739400:23:1849900:52:4622.7401:16:0435400:11:4300:01:4500:01:17
109 6134ELISABET BRANCHAT FREIXAC.E. PICORNELLABF01:28:0148900:26:3448600:47:3725.2001:14:1148100:13:5000:01:5600:01:42
110 6280ANNA PADRES KEITACLUB NATACIO BANYOLESCDF01:28:2548700:26:2749000:48:4224.6401:15:0946300:13:1600:01:2400:01:15
111 6067MERITXELL LÓPEZ CONDEC. TRIATLO MONTORNESV1F01:28:4850100:29:0446700:45:0326.6401:14:0749200:14:4100:01:2700:01:31
112 5028ADRIANA TARRE CASABLANCASCLUB TRIATLO GRANOLLERSV1F01:31:4849500:27:2549500:50:2123.8301:17:4648400:14:0200:01:4400:01:09
113 28ROSA MARIA GIBERGA CONDECERRR IGUALADAV1F01:33:2349900:28:1549600:51:2623.3301:19:4147600:13:4200:02:0600:02:05
114 1998ANA MARIA SABATER MATAIXCLUB ATLETIC CASTELLARV1F01:33:3949800:27:4849700:51:4523.1901:19:3348500:14:0600:01:3500:01:18
115 3522TERESA COPETE VIDALCLUB NATACIO VALLDOREIXV1F01:37:4050300:29:3749800:52:3022.8601:22:0749600:15:3300:02:1200:02:06






NP 1818TAMARA CAMPOMANES PARDOCERDANYOLA CHABF
NP 1854MARIA JOSE TABOADA GOMEZCLUB NATACIO RUBIV1F
NP 4084INMA ENRIQUEZCLUB TRI5UV1F
NP 6281BERTA SANTOS JUIDIASCLUB NATACIO BANYOLESCDF

FEDERACIÓ CATALANA DE TRIATLÓ
SEU CENTRAL I CORRESPONDÈNCIA: Rambla Guipúscoa 23-25 2on-D · 08018 Barcelona · Tel / Fax : 93 307 93 35
ATENCIÓ AL PÚBLIC: Passeig Joan de Borbó, 93 (Club Natació Barcelona) · 08039 Barcelona · Tel / Fax : 93 307 93 32